Decoded Metar for KDNL (AUGUSTA/DANIEL in GA, USA) (IATA:DNL) | Meteo·Mobile Aviation Weather
aviador You're here:

KDNL Decoded Metar

AUGUSTA/DANIEL in GA, USA
Report Time2018-08-19 04:53:00
UTC Time2018-08-19 05:27:55
Flight Rules vfr VFR
Wind220° at 04 kt
W.Decomp.*RWY 23: 4.0 kt HW 0.4 kt LCW
RWY 29: 1.6 kt HW 3.7 kt LCW
W.Rank220° ranks 3
Current wind is below 220° avg. (5.7)
Visibility9999 m
Phenomena:N/A
Clouds:N/A
Expected CloudBase > 800 ft AGL from Temp-Dew spread
CeilingNone
Temp24°C (ISA +10)
Dew Point22°C (89% RH)
QNH1016 hPa
Density Alt1,818 ft
Elevation427 ft
Report Wrong Elevation
Raw Report
METAR KDNL 190453Z AUTO 22004KT 10SM CLR 24/22 A2999 RMK AO2 SLP149
T02390222 403220233=

Extra information for KDNL:More info

Metar Taf Metar & Taf Last 4 Metars F.Rules Stats Wind Profile Meteogram Temp Stats Airport Information Weather charts Add Link Nearby VenuesMetar ALERT Operation Metar Decoded Social comments

AIRNAV info for KDNL